Cobb County-Mc Collum Field
KRYY : now visible

Airfield :











YOU CAN JOIN US ON...

 
LOGIN :

Register | Disclaimer

   EN    FR    IT 

 









Legend :    VFR   Marginal VFR   IFR   Intensive IFR   Very Intensive IFR
Visi :
Ceiling :
>= 8 km
>= 3000ft
5 to 8 km
1000 to 3000 ft
1500m to 5 km
500 to 1000 ft
800 to 1500m
200 to 500 ft
< 800m
< 200 ft
Symbols :   Thunderstorms  Fog  Heavy snow  Heavy precipitations  Wind > 20 kt






- Airport Elevation : 1040 ft


KRYY - Cobb County-Mc Collum Field

CURRENT METAR :
  • 270250Z 00000KT 10SM OVC060 07/02 A3002 RMK AO2 SLP888 T00720022 58004 $

EXPIRED METARs :
  • 270150Z 00000KT 10SM OVC065 07/02 A3003 RMK AO2 SLP891 T00720022 $
  • 270050Z 00000KT 10SM OVC065 07/02 A3003 RMK AO2 SLP892 T00720017 $

TAF KRYY
Valid from the 27 at 00:00 until the 28 at 00:00 UTC


262333Z 2700/2724 25003KT P6SM OVC070
FM270800 25003KT 6SM -SHRA OVC015
FM271000 00000KT 6SM -SHRA OVC008
FM271100 00000KT P6SM VCSH OVC007
FM272000 29009KT P6SM SCT012 BKN035
FM272300 30007KT P6SM SCT090



MET'MAP, your aeronautical weather chart ! - Copyright ORBIFLY December 2007 - Disclaimer

ORBIFLY MET'MAP TEAM :

Programming & Development : Alexandra Zaïnal
Concept & original design : Baudouin d'Aumeries
Assistance for programming : Marc-Olivier Méhu
Technical & hardware support : Manuel Goepfert

Contact : metmap@orbifly.com




SOURCES & CREDITS :

   NOAA       Earth
Advisory